Time;durP1;ratioP1;P1;durP2;ratioP2;P2;SDS_P1;SDS_P2;PMS_P1;PMS_P2;Temp;Humidity;BMP_temperature;BMP_pressure;BME280_temperature;BME280_humidity;BME280_pressure;Samples;Min_cycle;Max_cycle;Signal;HPM_P1;HPM_P2
2023/07/31 00:00:06;;;;;;;35.05;31.77;;;19.60;99.90;;;;;;4971237;28;20126;-63
2023/07/31 00:02:31;;;;;;;34.22;31.17;;;19.70;99.90;;;;;;4971044;28;20047;-63
2023/07/31 00:04:57;;;;;;;34.70;31.45;;;19.50;99.90;;;;;;4973726;28;20169;-63
2023/07/31 00:07:23;;;;;;;34.80;31.40;;;19.60;99.90;;;;;;4973660;28;20046;-63
2023/07/31 00:09:48;;;;;;;33.88;30.88;;;19.20;99.90;;;;;;4972023;28;20043;-63
2023/07/31 00:12:14;;;;;;;34.88;31.48;;;19.10;99.90;;;;;;4973862;28;20505;-63
2023/07/31 00:14:39;;;;;;;36.58;33.17;;;19.80;99.90;;;;;;4972560;28;20393;-63
2023/07/31 00:17:05;;;;;;;33.55;30.48;;;19.50;99.90;;;;;;4974095;28;20062;-63
2023/07/31 00:19:31;;;;;;;35.05;31.85;;;19.70;99.90;;;;;;4972938;28;20497;-63
2023/07/31 00:21:56;;;;;;;33.20;30.17;;;19.70;99.90;;;;;;4972529;28;20069;-64
2023/07/31 00:24:22;;;;;;;32.13;28.67;;;19.60;99.90;;;;;;4972894;28;20584;-63
2023/07/31 00:26:47;;;;;;;33.20;30.15;;;19.30;99.90;;;;;;4973619;28;20045;-63
2023/07/31 00:29:13;;;;;;;33.33;30.13;;;19.10;99.90;;;;;;4972912;28;20480;-63
2023/07/31 00:31:38;;;;;;;35.65;32.40;;;19.10;99.90;;;;;;4972852;28;20488;-63
2023/07/31 00:34:04;;;;;;;34.65;31.42;;;19.10;99.90;;;;;;4971294;28;20480;-63
2023/07/31 00:36:30;;;;;;;34.80;31.42;;;18.90;99.90;;;;;;4973214;28;20043;-63
2023/07/31 00:38:55;;;;;;;34.33;31.13;;;18.70;99.90;;;;;;4972770;28;20501;-63
2023/07/31 00:41:21;;;;;;;34.38;30.73;;;19.20;99.90;;;;;;4973611;28;20046;-63
2023/07/31 00:43:46;;;;;;;32.78;29.75;;;19.50;99.90;;;;;;4972618;28;20109;-63
2023/07/31 00:46:12;;;;;;;34.13;30.92;;;18.70;99.90;;;;;;4972798;28;20097;-63
2023/07/31 00:48:39;;;;;;;33.88;30.52;;;19.00;99.90;;;;;;4972824;28;20119;-63
2023/07/31 00:51:04;;;;;;;36.13;32.58;;;18.60;99.90;;;;;;4972844;28;20058;-63
2023/07/31 00:53:30;;;;;;;36.10;32.45;;;18.60;99.90;;;;;;4960859;28;20039;-63
2023/07/31 00:55:57;;;;;;;33.85;30.75;;;18.50;99.90;;;;;;4972679;28;20043;-63
2023/07/31 00:58:22;;;;;;;33.65;30.17;;;19.20;99.90;;;;;;4972531;28;20596;-64
2023/07/31 01:00:49;;;;;;;32.78;29.50;;;18.90;99.90;;;;;;4972462;28;20478;-63
2023/07/31 01:03:14;;;;;;;32.75;29.38;;;18.50;99.90;;;;;;4972369;28;20377;-63
2023/07/31 01:06:09;;;;;;;32.10;29.08;;;19.00;99.90;;;;;;4972091;28;20057;-63
2023/07/31 01:09:10;;;;;;;31.58;28.42;;;19.40;99.90;;;;;;4964747;28;20566;-63
2023/07/31 01:11:43;;;;;;;31.55;28.70;;;18.60;99.90;;;;;;4959001;28;20451;-63
2023/07/31 01:14:08;;;;;;;30.33;27.33;;;18.40;99.90;;;;;;4972476;28;20042;-64
2023/07/31 01:16:34;;;;;;;31.67;27.55;;;19.40;99.90;;;;;;4970889;28;20042;-63
2023/07/31 01:18:59;;;;;;;34.13;27.05;;;19.30;99.90;;;;;;4972325;28;20073;-63
2023/07/31 01:21:49;;;;;;;29.17;26.23;;;18.50;99.90;;;;;;4970877;28;20485;-63
2023/07/31 01:24:17;;;;;;;31.52;28.50;;;18.50;99.90;;;;;;4972087;28;20593;-63
2023/07/31 01:26:47;;;;;;;30.60;27.98;;;19.10;99.90;;;;;;4972715;28;20504;-63
2023/07/31 01:29:33;;;;;;;29.33;26.38;;;18.90;99.90;;;;;;4972390;28;20042;-63
2023/07/31 01:32:02;;;;;;;30.13;27.42;;;19.30;99.90;;;;;;4972217;28;20043;-63
2023/07/31 01:34:28;;;;;;;31.33;28.38;;;18.60;99.90;;;;;;4971708;28;20057;-63
2023/07/31 01:36:55;;;;;;;29.13;26.63;;;19.10;99.90;;;;;;4962827;28;20153;-63
2023/07/31 01:39:21;;;;;;;31.45;28.42;;;18.40;99.90;;;;;;4971555;28;20106;-64
2023/07/31 01:41:46;;;;;;;30.80;28.20;;;18.30;99.90;;;;;;4970564;28;20405;-63
2023/07/31 01:44:12;;;;;;;29.73;27.10;;;18.50;99.90;;;;;;4969257;28;20113;-63
2023/07/31 01:46:37;;;;;;;30.30;27.50;;;19.10;99.90;;;;;;4971590;28;20051;-63
2023/07/31 01:49:05;;;;;;;31.50;28.23;;;18.30;99.90;;;;;;4971566;28;20126;-63
2023/07/31 01:51:33;;;;;;;31.70;28.88;;;18.80;99.90;;;;;;4970268;28;20082;-63
2023/07/31 01:54:02;;;;;;;29.88;27.23;;;18.20;99.90;;;;;;4971463;28;20043;-63
2023/07/31 01:56:28;;;;;;;29.25;26.52;;;18.70;99.90;;;;;;4971249;28;20031;-63
2023/07/31 01:58:53;;;;;;;28.92;26.25;;;18.20;99.90;;;;;;4971727;28;20050;-64
2023/07/31 02:01:19;;;;;;;29.83;27.27;;;18.80;99.90;;;;;;4971166;28;20457;-63
2023/07/31 02:03:45;;;;;;;30.48;27.98;;;19.40;99.90;;;;;;4971291;28;20126;-64
2023/07/31 02:06:10;;;;;;;30.42;27.63;;;18.40;99.90;;;;;;4970114;28;20472;-64
2023/07/31 02:08:36;;;;;;;30.15;27.70;;;19.20;99.90;;;;;;4971953;28;20065;-64
2023/07/31 02:11:02;;;;;;;30.08;27.27;;;19.30;99.90;;;;;;4970487;28;20620;-64
2023/07/31 02:13:27;;;;;;;28.23;26.02;;;18.20;99.90;;;;;;4968493;28;20046;-64
2023/07/31 02:15:53;;;;;;;27.50;25.17;;;18.20;99.90;;;;;;4970015;28;20106;-64
2023/07/31 02:18:19;;;;;;;29.48;26.73;;;19.10;99.90;;;;;;4971365;28;20046;-63
2023/07/31 02:20:52;;;;;;;27.17;24.77;;;19.30;99.90;;;;;;4971519;28;20481;-64
2023/07/31 02:23:20;;;;;;;24.60;22.25;;;18.20;99.90;;;;;;4969403;28;20076;-64
2023/07/31 02:25:46;;;;;;;24.23;21.88;;;19.10;99.90;;;;;;4971092;28;20118;-64
2023/07/31 02:28:12;;;;;;;23.15;21.35;;;18.10;99.90;;;;;;4970585;28;20129;-64
2023/07/31 02:30:38;;;;;;;23.67;21.38;;;18.20;99.90;;;;;;4969614;28;20452;-64
2023/07/31 02:33:05;;;;;;;23.15;21.35;;;19.10;99.90;;;;;;4971288;28;20046;-64
2023/07/31 02:35:31;;;;;;;23.23;20.88;;;18.00;99.90;;;;;;4970607;28;20055;-65
2023/07/31 02:37:56;;;;;;;22.20;20.50;;;19.10;99.90;;;;;;4971352;28;20452;-64
2023/07/31 02:40:23;;;;;;;20.38;18.67;;;18.00;99.90;;;;;;4970818;28;20051;-65
2023/07/31 02:42:48;;;;;;;21.67;19.90;;;19.00;99.90;;;;;;4971144;28;20055;-65
2023/07/31 02:45:14;;;;;;;22.13;20.23;;;19.30;99.90;;;;;;4971019;28;20500;-64
2023/07/31 02:47:40;;;;;;;21.98;20.15;;;17.90;99.90;;;;;;4971088;28;20493;-65
2023/07/31 02:50:06;;;;;;;21.45;19.55;;;19.40;99.90;;;;;;4969472;28;20419;-64
2023/07/31 02:52:31;;;;;;;24.30;22.35;;;19.40;99.90;;;;;;4971251;28;20039;-65
2023/07/31 02:54:58;;;;;;;25.67;23.42;;;19.40;99.90;;;;;;4970431;28;20050;-65
2023/07/31 02:57:23;;;;;;;24.02;22.02;;;19.30;99.90;;;;;;4969348;28;20055;-65
2023/07/31 02:59:49;;;;;;;22.17;20.23;;;18.30;99.90;;;;;;4970946;28;20047;-64
2023/07/31 03:02:14;;;;;;;20.65;18.95;;;18.20;99.90;;;;;;4970755;28;20123;-65
2023/07/31 03:04:40;;;;;;;19.75;18.30;;;17.80;99.90;;;;;;4970754;28;20050;-65
2023/07/31 03:07:06;;;;;;;20.70;18.85;;;19.20;99.90;;;;;;4970867;28;20544;-65
2023/07/31 03:09:32;;;;;;;21.33;19.52;;;19.30;99.90;;;;;;4970750;28;20038;-65
2023/07/31 03:11:57;;;;;;;21.52;19.73;;;19.10;99.90;;;;;;4971027;28;20472;-65
2023/07/31 03:14:23;;;;;;;20.73;19.17;;;19.10;99.90;;;;;;4970656;28;20519;-65
2023/07/31 03:16:49;;;;;;;22.10;20.23;;;18.30;99.90;;;;;;4971067;28;20109;-65
2023/07/31 03:19:14;;;;;;;20.60;18.50;;;17.80;99.90;;;;;;4970828;28;20095;-65
2023/07/31 03:21:40;;;;;;;23.10;21.10;;;17.70;99.90;;;;;;4969841;28;20039;-65
2023/07/31 03:24:06;;;;;;;23.25;20.98;;;17.70;99.90;;;;;;4970779;28;20074;-65
2023/07/31 03:26:32;;;;;;;24.10;21.90;;;18.00;99.90;;;;;;4970798;28;20050;-65
2023/07/31 03:28:58;;;;;;;22.35;20.05;;;18.20;99.90;;;;;;4971064;28;20050;-65
2023/07/31 03:31:23;;;;;;;23.65;21.23;;;19.60;99.90;;;;;;4970874;28;20043;-65
2023/07/31 03:33:49;;;;;;;24.15;21.73;;;18.20;99.90;;;;;;4970392;28;20113;-65
2023/07/31 03:36:15;;;;;;;25.55;20.52;;;19.70;99.90;;;;;;4973963;28;20560;-65
2023/07/31 03:38:40;;;;;;;26.48;21.08;;;19.40;99.90;;;;;;4974119;28;20130;-65
2023/07/31 03:41:06;;;;;;;31.35;21.70;;;17.80;99.90;;;;;;4973934;28;20101;-65
2023/07/31 03:43:33;;;;;;;24.48;22.02;;;20.00;99.90;;;;;;4974141;28;20049;-65
2023/07/31 03:45:59;;;;;;;33.88;26.10;;;18.20;99.90;;;;;;4974252;28;20121;-65
2023/07/31 03:48:25;;;;;;;31.08;26.00;;;19.30;99.90;;;;;;4974150;28;20385;-64
2023/07/31 03:50:51;;;;;;;32.88;25.10;;;18.40;99.90;;;;;;4972196;28;20129;-65
2023/07/31 03:53:16;;;;;;;30.65;27.27;;;18.10;99.90;;;;;;4973423;28;20512;-64
2023/07/31 03:55:42;;;;;;;33.25;26.35;;;18.80;99.90;;;;;;4973691;28;20396;-64
2023/07/31 03:58:07;;;;;;;30.95;25.38;;;18.00;99.90;;;;;;4973488;28;20101;-64
2023/07/31 04:00:33;;;;;;;30.65;27.45;;;18.00;99.90;;;;;;4960812;28;20493;-65
2023/07/31 04:02:59;;;;;;;31.45;25.23;;;18.30;99.90;;;;;;4972915;28;20407;-65
2023/07/31 04:05:24;;;;;;;30.13;26.80;;;20.00;99.90;;;;;;4973815;28;20522;-65
2023/07/31 04:07:50;;;;;;;32.58;29.33;;;20.00;99.90;;;;;;4973796;28;20489;-64
2023/07/31 04:10:16;;;;;;;31.15;27.88;;;19.50;99.90;;;;;;4973676;28;20053;-65
2023/07/31 04:12:41;;;;;;;36.83;29.40;;;20.00;99.90;;;;;;4972711;28;20049;-65
2023/07/31 04:15:07;;;;;;;33.13;28.75;;;19.80;99.90;;;;;;4964046;28;20098;-65
2023/07/31 04:17:33;;;;;;;35.38;30.13;;;19.80;99.90;;;;;;4963805;28;20043;-65
2023/07/31 04:19:58;;;;;;;34.00;30.55;;;17.90;99.90;;;;;;4973804;28;20030;-65
2023/07/31 04:22:24;;;;;;;32.15;27.23;;;19.70;99.90;;;;;;4972995;28;20039;-65
2023/07/31 04:24:49;;;;;;;34.88;26.25;;;18.80;99.90;;;;;;4973290;28;20604;-65
2023/07/31 04:27:15;;;;;;;31.10;27.75;;;18.00;99.90;;;;;;4971755;28;20035;-65
2023/07/31 04:29:42;;;;;;;32.53;28.08;;;20.00;99.90;;;;;;4988627;28;20540;-65
2023/07/31 04:32:08;;;;;;;41.90;27.88;;;18.00;99.90;;;;;;4971914;28;20408;-66
2023/07/31 04:34:34;;;;;;;42.72;27.45;;;18.30;99.90;;;;;;4988163;28;20069;-65
2023/07/31 04:36:59;;;;;;;40.25;27.92;;;19.90;99.90;;;;;;4969952;28;20051;-66
2023/07/31 04:39:25;;;;;;;43.88;29.23;;;20.10;99.90;;;;;;4966465;28;20086;-65
2023/07/31 04:41:50;;;;;;;42.92;28.38;;;20.10;99.90;;;;;;4972835;28;20034;-66
2023/07/31 04:44:16;;;;;;;42.92;28.63;;;18.20;99.90;;;;;;4973513;28;20049;-65
2023/07/31 04:46:41;;;;;;;40.22;27.75;;;18.10;99.90;;;;;;4964958;28;20074;-65
2023/07/31 04:49:07;;;;;;;46.58;28.58;;;20.10;99.90;;;;;;4963662;28;20034;-65
2023/07/31 04:51:33;;;;;;;52.97;27.35;;;19.10;99.90;;;;;;4972838;28;20049;-65
2023/07/31 04:53:58;;;;;;;43.88;28.38;;;20.40;99.90;;;;;;4972765;28;20512;-66
2023/07/31 04:56:24;;;;;;;49.03;29.63;;;19.20;99.90;;;;;;4972983;28;20039;-65
2023/07/31 04:58:49;;;;;;;44.92;30.77;;;20.20;99.90;;;;;;4973029;28;20520;-65
2023/07/31 05:01:15;;;;;;;45.30;30.40;;;20.10;99.90;;;;;;4970122;28;20042;-65
2023/07/31 05:03:40;;;;;;;40.28;31.55;;;18.10;99.90;;;;;;4972163;28;20039;-65
2023/07/31 05:06:06;;;;;;;38.28;29.45;;;20.30;99.90;;;;;;4972532;28;20090;-65
2023/07/31 05:08:32;;;;;;;38.03;30.15;;;20.30;99.90;;;;;;4972851;28;20045;-65
2023/07/31 05:10:57;;;;;;;37.67;28.67;;;19.30;99.90;;;;;;4972008;28;20445;-65
2023/07/31 05:13:23;;;;;;;39.67;29.67;;;20.30;99.90;;;;;;4972021;28;20501;-65
2023/07/31 05:15:49;;;;;;;35.83;29.35;;;20.00;99.90;;;;;;4968540;28;20512;-64
2023/07/31 05:18:15;;;;;;;39.05;30.80;;;19.30;99.90;;;;;;4953239;28;20047;-65
2023/07/31 05:20:40;;;;;;;34.58;29.55;;;19.30;99.90;;;;;;4968378;28;20094;-65
2023/07/31 05:23:06;;;;;;;40.22;31.60;;;18.60;99.90;;;;;;4967356;28;20050;-65
2023/07/31 05:25:32;;;;;;;34.50;28.77;;;19.90;99.90;;;;;;4967214;28;20073;-65
2023/07/31 05:27:57;;;;;;;37.95;31.00;;;18.30;99.90;;;;;;4957979;28;20973;-65
2023/07/31 05:30:23;;;;;;;35.53;30.42;;;20.10;99.90;;;;;;4965713;28;20049;-64
2023/07/31 05:32:49;;;;;;;34.85;31.25;;;18.30;99.90;;;;;;4966789;28;20045;-65
2023/07/31 05:35:14;;;;;;;35.88;32.20;;;18.30;99.90;;;;;;4969319;28;20073;-65
2023/07/31 05:37:40;;;;;;;36.45;32.10;;;20.40;99.90;;;;;;4970576;28;20519;-65
2023/07/31 05:40:06;;;;;;;35.75;30.40;;;20.70;99.90;;;;;;4971255;28;20104;-65
2023/07/31 05:42:32;;;;;;;38.80;32.08;;;19.50;99.90;;;;;;4968118;28;20563;-65
2023/07/31 05:44:57;;;;;;;31.40;28.25;;;20.30;99.90;;;;;;4951087;28;20046;-65
2023/07/31 05:47:23;;;;;;;30.90;27.60;;;18.30;99.90;;;;;;4968954;28;20073;-65
2023/07/31 05:49:49;;;;;;;26.50;23.85;;;20.70;99.90;;;;;;4970331;28;20497;-65
2023/07/31 05:52:15;;;;;;;28.13;23.35;;;18.50;99.90;;;;;;4970436;28;20031;-65
2023/07/31 05:54:42;;;;;;;27.73;24.92;;;18.90;99.90;;;;;;4968487;28;20413;-65
2023/07/31 05:57:07;;;;;;;29.35;26.25;;;20.70;99.90;;;;;;4971092;28;20129;-65
2023/07/31 05:59:33;;;;;;;30.58;25.95;;;18.40;99.90;;;;;;4970013;28;20469;-64
2023/07/31 06:01:59;;;;;;;27.90;25.10;;;20.80;99.90;;;;;;4970704;28;20026;-65
2023/07/31 06:04:25;;;;;;;27.40;24.55;;;20.70;99.90;;;;;;4967916;28;20034;-65
2023/07/31 06:06:51;;;;;;;32.42;25.05;;;19.20;99.90;;;;;;4970490;28;20043;-65
2023/07/31 06:09:17;;;;;;;33.00;25.95;;;19.50;99.90;;;;;;4967496;28;20412;-65
2023/07/31 06:11:43;;;;;;;29.90;26.80;;;20.90;99.90;;;;;;4969351;28;20053;-66
2023/07/31 06:14:08;;;;;;;30.55;26.65;;;18.70;99.90;;;;;;4969234;28;20031;-65
2023/07/31 06:16:34;;;;;;;27.40;24.40;;;20.90;99.90;;;;;;4962850;28;20500;-64
2023/07/31 06:19:00;;;;;;;27.85;24.02;;;20.50;99.90;;;;;;4964239;28;20031;-65
2023/07/31 06:21:26;;;;;;;31.00;24.45;;;19.90;99.90;;;;;;4965528;28;20057;-65
2023/07/31 06:23:52;;;;;;;27.58;23.02;;;18.60;99.90;;;;;;4966111;28;20047;-65
2023/07/31 06:26:17;;;;;;;23.35;20.67;;;18.40;99.90;;;;;;4966267;28;20050;-66
2023/07/31 06:28:43;;;;;;;22.60;20.45;;;21.00;99.90;;;;;;4969751;28;20046;-65
2023/07/31 06:31:09;;;;;;;22.85;20.55;;;18.50;99.90;;;;;;4966888;28;20065;-65
2023/07/31 06:33:34;;;;;;;21.90;19.73;;;19.90;99.90;;;;;;4951238;28;20067;-65
2023/07/31 06:36:00;;;;;;;25.33;22.85;;;20.70;99.90;;;;;;4967124;28;20039;-65
2023/07/31 06:38:27;;;;;;;25.30;23.02;;;21.00;99.90;;;;;;4959516;28;20420;-65
2023/07/31 06:40:53;;;;;;;26.73;24.15;;;18.40;99.90;;;;;;4967809;28;20046;-65
2023/07/31 06:43:18;;;;;;;23.42;21.13;;;20.70;99.90;;;;;;4969969;28;20404;-65
2023/07/31 06:45:44;;;;;;;26.15;23.65;;;20.40;99.90;;;;;;4961039;28;20062;-65
2023/07/31 06:48:09;;;;;;;26.02;23.80;;;18.70;99.90;;;;;;4961674;28;20039;-65
2023/07/31 06:50:35;;;;;;;24.63;22.52;;;20.90;99.90;;;;;;4969162;28;20050;-65
2023/07/31 06:53:01;;;;;;;25.13;23.02;;;21.00;99.90;;;;;;4961174;28;20046;-66
2023/07/31 06:55:27;;;;;;;27.02;24.83;;;18.50;99.90;;;;;;4967519;28;20058;-64
2023/07/31 06:57:54;;;;;;;26.35;24.25;;;18.50;99.90;;;;;;4965617;28;20061;-65
2023/07/31 07:00:21;;;;;;;26.70;24.45;;;21.20;99.90;;;;;;4964746;28;20039;-65
2023/07/31 07:02:48;;;;;;;23.90;21.90;;;21.20;99.90;;;;;;4965134;28;21616;-65
2023/07/31 07:05:14;;;;;;;26.25;23.92;;;21.10;99.90;;;;;;4961994;28;20400;-65
2023/07/31 07:07:41;;;;;;;23.08;21.05;;;19.20;99.90;;;;;;4964722;28;20054;-66
2023/07/31 07:10:07;;;;;;;22.98;20.60;;;19.90;99.90;;;;;;4964280;28;20534;-65
2023/07/31 07:12:33;;;;;;;22.88;20.90;;;21.30;99.90;;;;;;4969463;28;20043;-66
2023/07/31 07:14:59;;;;;;;26.17;23.95;;;19.70;99.90;;;;;;4974442;28;20149;-65
2023/07/31 07:17:26;;;;;;;26.65;24.58;;;21.10;99.90;;;;;;4970591;28;20094;-65
2023/07/31 07:19:52;;;;;;;24.77;22.50;;;20.60;99.90;;;;;;4963461;28;20031;-65
2023/07/31 07:22:18;;;;;;;22.88;20.67;;;21.40;99.90;;;;;;4961725;28;20133;-65
2023/07/31 07:24:43;;;;;;;24.02;21.73;;;18.70;99.90;;;;;;4967339;28;20070;-65
2023/07/31 07:27:09;;;;;;;24.42;22.15;;;20.40;99.90;;;;;;4971916;28;20066;-65
2023/07/31 07:29:35;;;;;;;20.65;18.77;;;18.90;99.90;;;;;;4972868;28;20118;-65
2023/07/31 07:32:01;;;;;;;21.95;20.00;;;20.80;99.90;;;;;;4966317;28;20062;-65
2023/07/31 07:34:27;;;;;;;22.65;20.42;;;19.80;99.90;;;;;;4967334;28;20412;-65
2023/07/31 07:36:54;;;;;;;22.95;20.88;;;19.50;99.90;;;;;;4968164;28;20843;-65
2023/07/31 07:39:20;;;;;;;19.42;17.83;;;19.20;99.90;;;;;;4966315;28;20071;-65
2023/07/31 07:41:46;;;;;;;21.30;19.60;;;19.20;99.90;;;;;;4965734;28;20118;-65
2023/07/31 07:44:12;;;;;;;22.85;20.95;;;19.50;99.90;;;;;;4969407;28;20473;-65
2023/07/31 07:46:37;;;;;;;22.60;20.55;;;21.00;99.90;;;;;;4964173;28;20535;-65
2023/07/31 07:49:03;;;;;;;24.25;21.95;;;22.60;99.90;;;;;;4972010;28;20089;-65
2023/07/31 07:51:30;;;;;;;26.27;23.85;;;22.60;99.90;;;;;;4969580;28;20039;-65
2023/07/31 07:53:56;;;;;;;25.90;23.60;;;22.60;99.90;;;;;;4967478;28;20047;-64
2023/07/31 07:56:22;;;;;;;27.05;24.40;;;22.70;99.90;;;;;;4972916;28;20118;-64
2023/07/31 07:58:50;;;;;;;29.33;26.35;;;19.70;99.90;;;;;;4971124;28;20042;-64
2023/07/31 08:01:15;;;;;;;29.48;26.58;;;22.50;99.90;;;;;;4970371;28;20511;-64
2023/07/31 08:03:41;;;;;;;31.10;28.20;;;20.00;99.90;;;;;;4966172;28;20043;-64
2023/07/31 08:06:09;;;;;;;30.13;27.10;;;20.90;99.90;;;;;;4965344;28;20057;-64
2023/07/31 08:08:38;;;;;;;29.73;27.02;;;22.70;99.90;;;;;;4969448;28;20046;-64
2023/07/31 08:11:03;;;;;;;29.35;26.85;;;21.70;99.90;;;;;;4969428;28;20038;-65
2023/07/31 08:13:29;;;;;;;30.58;27.88;;;22.80;99.90;;;;;;4969444;28;20057;-64
2023/07/31 08:15:55;;;;;;;31.25;28.23;;;21.80;99.90;;;;;;4963704;28;20074;-64
2023/07/31 08:18:20;;;;;;;31.85;29.00;;;21.40;99.90;;;;;;4976875;28;20377;-64
2023/07/31 08:20:46;;;;;;;31.52;28.73;;;22.80;99.90;;;;;;4968427;28;20057;-64
2023/07/31 08:23:12;;;;;;;31.67;28.83;;;22.70;99.90;;;;;;4970338;28;20034;-64
2023/07/31 08:25:38;;;;;;;30.92;28.23;;;22.10;99.90;;;;;;4970360;28;20060;-64
2023/07/31 08:28:04;;;;;;;30.25;27.75;;;22.70;99.90;;;;;;4973575;28;20461;-64
2023/07/31 08:30:31;;;;;;;28.77;26.00;;;22.50;99.90;;;;;;4966196;28;20067;-64
2023/07/31 08:32:57;;;;;;;29.92;27.33;;;19.70;99.90;;;;;;4969213;28;20097;-64
2023/07/31 08:35:23;;;;;;;31.25;28.17;;;22.50;99.90;;;;;;4969762;28;20035;-64
2023/07/31 08:37:49;;;;;;;29.92;27.27;;;22.40;99.90;;;;;;4967337;28;20523;-64
2023/07/31 08:40:15;;;;;;;30.52;27.77;;;22.60;99.90;;;;;;4965977;28;20039;-63
2023/07/31 08:42:48;;;;;;;30.52;27.90;;;22.50;99.90;;;;;;4971293;28;20105;-64
2023/07/31 08:45:19;;;;;;;30.80;27.80;;;20.90;99.90;;;;;;4982004;28;20141;-64
2023/07/31 08:47:50;;;;;;;28.58;26.02;;;22.50;99.90;;;;;;4972536;28;20097;-63
2023/07/31 08:50:20;;;;;;;29.58;26.77;;;21.20;99.90;;;;;;4970051;28;20058;-64
2023/07/31 08:52:48;;;;;;;27.95;25.45;;;19.60;99.90;;;;;;4971605;28;20042;-63
2023/07/31 08:55:13;;;;;;;29.33;26.77;;;20.70;99.90;;;;;;4965883;28;20038;-64
2023/07/31 08:57:39;;;;;;;29.08;26.17;;;19.90;99.90;;;;;;4971809;28;20126;-63
2023/07/31 09:00:07;;;;;;;28.88;26.10;;;19.90;99.90;;;;;;4970359;28;20050;-63
2023/07/31 09:03:04;;;;;;;28.00;25.50;;;20.70;99.90;;;;;;4972222;28;20067;-63
2023/07/31 09:05:31;;;;;;;28.15;25.60;;;19.60;99.90;;;;;;4957465;28;20059;-63
2023/07/31 09:07:57;;;;;;;28.85;26.27;;;20.70;99.90;;;;;;4967930;28;20050;-63
2023/07/31 09:10:23;;;;;;;27.63;25.05;;;22.70;99.90;;;;;;4960474;28;20038;-64
2023/07/31 09:12:51;;;;;;;29.10;26.00;;;20.00;99.90;;;;;;4961217;28;20446;-63
2023/07/31 09:15:18;;;;;;;29.60;26.83;;;22.80;99.90;;;;;;4963308;28;20406;-63
2023/07/31 09:17:43;;;;;;;30.25;27.50;;;22.50;99.90;;;;;;4966768;28;20031;-63
2023/07/31 09:20:17;;;;;;;30.15;27.38;;;21.90;99.90;;;;;;4966651;28;20503;-64
2023/07/31 09:22:44;;;;;;;29.90;27.02;;;22.80;99.90;;;;;;4971222;28;20038;-64
2023/07/31 09:25:23;;;;;;;29.95;27.10;;;22.60;99.90;;;;;;4968581;28;20038;-64
2023/07/31 09:27:55;;;;;;;28.52;26.13;;;20.00;99.90;;;;;;4970138;28;20039;-63
2023/07/31 09:30:21;;;;;;;29.85;26.80;;;21.10;99.90;;;;;;4964722;28;20053;-64
2023/07/31 09:32:48;;;;;;;30.25;27.30;;;22.00;99.90;;;;;;4966460;28;20043;-64
2023/07/31 09:35:21;;;;;;;30.35;27.08;;;20.00;99.90;;;;;;4962867;28;20034;-64
2023/07/31 09:37:51;;;;;;;29.15;26.27;;;19.80;99.90;;;;;;4961089;28;20055;-64
2023/07/31 09:40:49;;;;;;;31.80;28.90;;;22.60;99.90;;;;;;4961128;28;20860;-63
2023/07/31 09:43:20;;;;;;;32.15;28.95;;;19.90;99.90;;;;;;4949274;28;20112;-64
2023/07/31 09:45:46;;;;;;;32.90;29.20;;;20.50;99.90;;;;;;4969983;28;20078;-63
2023/07/31 09:48:17;;;;;;;32.83;29.85;;;22.90;99.90;;;;;;4968036;28;20030;-64
2023/07/31 09:50:47;;;;;;;34.78;31.40;;;20.80;99.90;;;;;;4965808;28;20046;-64
2023/07/31 09:53:13;;;;;;;36.83;33.08;;;21.80;99.90;;;;;;4968173;28;20038;-64
2023/07/31 09:55:42;;;;;;;36.55;33.15;;;20.60;99.90;;;;;;4970985;28;20081;-64
2023/07/31 09:58:10;;;;;;;37.85;34.35;;;21.00;99.90;;;;;;4968574;28;20050;-64
2023/07/31 10:00:36;;;;;;;37.30;33.75;;;21.10;99.90;;;;;;4968599;28;20042;-64
2023/07/31 10:03:05;;;;;;;36.42;33.08;;;21.70;99.90;;;;;;4969123;28;20053;-64
2023/07/31 10:05:39;;;;;;;36.25;33.08;;;21.10;99.90;;;;;;4964437;28;20047;-63
2023/07/31 10:08:07;;;;;;;37.50;34.08;;;22.90;99.90;;;;;;4961384;28;20039;-64
2023/07/31 10:10:35;;;;;;;38.08;34.65;;;23.80;99.90;;;;;;4963589;28;20046;-64
2023/07/31 10:13:02;;;;;;;36.70;33.38;;;21.10;99.90;;;;;;4966369;28;20493;-63
2023/07/31 10:15:28;;;;;;;35.95;32.65;;;21.90;99.90;;;;;;4958121;28;20054;-64
2023/07/31 10:17:54;;;;;;;36.10;32.53;;;23.70;99.90;;;;;;4967887;28;20054;-63
2023/07/31 10:20:21;;;;;;;34.53;31.45;;;21.00;99.90;;;;;;4966571;28;20476;-64
2023/07/31 10:22:47;;;;;;;35.70;32.25;;;23.70;99.90;;;;;;4959906;28;20055;-64
2023/07/31 10:25:15;;;;;;;36.55;33.05;;;23.80;99.90;;;;;;4964027;28;20047;-64
2023/07/31 10:27:41;;;;;;;35.70;32.50;;;21.10;99.90;;;;;;4963558;28;20054;-63
2023/07/31 10:30:11;;;;;;;36.72;33.22;;;23.00;99.90;;;;;;4965684;28;20105;-64
2023/07/31 10:32:40;;;;;;;37.30;33.80;;;22.80;99.90;;;;;;4966924;28;20516;-63
2023/07/31 10:35:07;;;;;;;37.25;33.67;;;22.00;99.90;;;;;;4963274;28;20040;-63
2023/07/31 10:37:40;;;;;;;37.20;33.30;;;20.90;99.90;;;;;;4965836;28;20424;-63
2023/07/31 10:40:11;;;;;;;37.53;33.78;;;23.40;99.90;;;;;;4968201;28;20042;-63
2023/07/31 10:42:48;;;;;;;38.22;34.25;;;21.30;99.90;;;;;;4965474;28;20038;-63
2023/07/31 10:45:14;;;;;;;37.05;33.35;;;20.70;99.90;;;;;;4968121;28;20050;-63
2023/07/31 10:47:44;;;;;;;38.42;34.65;;;23.30;99.90;;;;;;4965442;28;20054;-63
2023/07/31 10:50:15;;;;;;;38.92;35.50;;;23.30;99.90;;;;;;4967655;28;20417;-63
2023/07/31 10:52:46;;;;;;;39.70;35.92;;;23.50;99.90;;;;;;4972430;28;20042;-63
2023/07/31 10:55:29;;;;;;;38.28;34.72;;;23.60;99.90;;;;;;4973236;28;20077;-64
2023/07/31 10:57:57;;;;;;;37.72;34.10;;;23.70;99.90;;;;;;4974477;28;20117;-64
2023/07/31 11:00:29;;;;;;;37.13;33.72;;;21.30;99.90;;;;;;4966900;28;20089;-63
2023/07/31 11:03:01;;;;;;;39.15;35.60;;;23.00;99.90;;;;;;4966035;28;20877;-63
2023/07/31 11:05:42;;;;;;;37.60;34.13;;;23.70;99.90;;;;;;4970070;28;20125;-63
2023/07/31 11:08:28;;;;;;;36.75;33.40;;;21.10;99.90;;;;;;4967517;28;20066;-63
2023/07/31 11:11:02;;;;;;;38.00;34.50;;;21.10;99.90;;;;;;4972050;28;20388;-64
2023/07/31 11:13:40;;;;;;;38.00;34.35;;;21.20;99.90;;;;;;4969923;28;20065;-63
2023/07/31 11:16:06;;;;;;;36.78;33.30;;;23.70;99.90;;;;;;4967794;28;20035;-63
2023/07/31 11:18:32;;;;;;;38.55;35.03;;;23.10;99.90;;;;;;4971287;28;20131;-64
2023/07/31 11:20:57;;;;;;;37.35;34.03;;;23.70;99.90;;;;;;4969150;28;20052;-63
2023/07/31 11:23:23;;;;;;;38.72;35.13;;;22.60;99.90;;;;;;4963871;28;20039;-63
2023/07/31 11:25:50;;;;;;;38.08;34.50;;;23.90;99.90;;;;;;4973020;28;20185;-63
2023/07/31 11:28:17;;;;;;;39.65;35.70;;;23.20;99.90;;;;;;4971857;28;20042;-63
2023/07/31 11:30:44;;;;;;;38.45;34.38;;;23.70;99.90;;;;;;4972258;28;20042;-63
2023/07/31 11:33:12;;;;;;;38.00;34.20;;;23.70;99.90;;;;;;4970396;28;20612;-63
2023/07/31 11:35:46;;;;;;;39.20;35.08;;;23.90;99.90;;;;;;4966364;28;20109;-63
2023/07/31 11:38:20;;;;;;;39.97;35.70;;;21.60;99.90;;;;;;4970772;28;20059;-63
2023/07/31 11:40:46;;;;;;;39.25;35.35;;;23.20;99.90;;;;;;4973973;28;20513;-63
2023/07/31 11:43:16;;;;;;;39.88;35.63;;;23.00;99.90;;;;;;4970241;28;20038;-62
2023/07/31 11:45:41;;;;;;;39.17;34.90;;;22.70;99.90;;;;;;4966265;28;20452;-63
2023/07/31 11:48:07;;;;;;;37.92;33.95;;;22.10;99.90;;;;;;4966041;28;20051;-64
2023/07/31 11:50:35;;;;;;;38.63;34.47;;;23.70;99.90;;;;;;4970561;28;20062;-62
2023/07/31 11:53:09;;;;;;;37.15;33.40;;;23.50;99.90;;;;;;4971025;28;20050;-63
2023/07/31 11:55:35;;;;;;;39.28;32.83;;;22.30;99.90;;;;;;4971772;28;20125;-62
2023/07/31 11:58:01;;;;;;;36.85;33.05;;;23.60;99.90;;;;;;4972614;28;20415;-63
2023/07/31 12:00:27;;;;;;;37.47;33.58;;;22.60;99.90;;;;;;4968539;28;20039;-63
2023/07/31 12:02:53;;;;;;;38.38;34.25;;;21.80;99.90;;;;;;4967877;28;20065;-62
2023/07/31 12:05:19;;;;;;;38.35;34.13;;;23.60;99.90;;;;;;4967966;28;20050;-62
2023/07/31 12:07:54;;;;;;;41.42;35.00;;;23.70;99.90;;;;;;4966370;28;20477;-63
2023/07/31 12:10:27;;;;;;;38.80;34.08;;;23.00;99.90;;;;;;4968062;28;20519;-63
2023/07/31 12:13:06;;;;;;;42.55;35.72;;;22.30;99.90;;;;;;4970216;28;20054;-62
2023/07/31 12:15:34;;;;;;;42.30;35.92;;;23.70;99.90;;;;;;4971531;28;20456;-63
2023/07/31 12:18:00;;;;;;;43.10;38.45;;;23.10;99.90;;;;;;4966771;28;20759;-63
2023/07/31 12:20:26;;;;;;;47.10;39.60;;;22.70;99.90;;;;;;4967017;28;20046;-62
2023/07/31 12:22:51;;;;;;;46.67;40.08;;;21.60;99.90;;;;;;4971643;28;20039;-62
2023/07/31 12:25:17;;;;;;;43.53;38.88;;;23.50;99.90;;;;;;4970770;28;20137;-63
2023/07/31 12:27:45;;;;;;;44.33;38.13;;;22.30;99.90;;;;;;4972021;28;20157;-63